createdAt,value
2023-06-23T00:00:23.568Z,147.86
2023-06-23T00:01:23.743Z,148.49
2023-06-23T00:02:23.648Z,146.39
2023-06-23T00:03:23.703Z,147.27
2023-06-23T00:04:23.734Z,147.05
2023-06-23T00:05:23.757Z,146.21
2023-06-23T00:06:23.794Z,146.51
2023-06-23T00:07:23.904Z,147.14
2023-06-23T00:08:23.876Z,147.34
2023-06-23T00:09:23.906Z,146.99
2023-06-23T00:10:23.956Z,146.74
2023-06-23T00:11:23.997Z,145.76
2023-06-23T00:12:24.014Z,146.17
2023-06-23T00:13:24.079Z,146.78
2023-06-23T00:14:24.104Z,146.71
2023-06-23T00:15:24.145Z,146.22
2023-06-23T00:16:24.169Z,145.70
2023-06-23T00:17:24.282Z,146.01
2023-06-23T00:18:24.272Z,145.92
2023-06-23T00:19:24.296Z,145.71
2023-06-23T00:20:24.344Z,145.89
2023-06-23T00:21:24.380Z,146.34
2023-06-23T00:22:24.409Z,146.96
2023-06-23T00:23:24.464Z,145.62
2023-06-23T00:24:24.490Z,146.19
2023-06-23T00:25:24.520Z,145.91
2023-06-23T00:26:24.567Z,147.10
2023-06-23T00:27:24.625Z,147.50
2023-06-23T00:28:24.649Z,146.11
2023-06-23T00:29:24.727Z,146.99
2023-06-23T00:30:24.752Z,147.27
2023-06-23T00:31:24.782Z,148.09
2023-06-23T00:32:24.819Z,147.99
2023-06-23T00:33:24.867Z,147.81
2023-06-23T00:34:24.893Z,147.39
2023-06-23T00:35:24.944Z,147.80
2023-06-23T00:36:24.966Z,146.31
2023-06-23T00:37:25.009Z,148.12
2023-06-23T00:38:25.058Z,147.08
2023-06-23T00:39:25.097Z,146.24
2023-06-23T00:40:25.136Z,146.28
2023-06-23T00:41:25.176Z,145.48
2023-06-23T00:42:25.229Z,146.19
2023-06-23T00:43:25.294Z,145.25
2023-06-23T00:44:25.322Z,145.82
2023-06-23T00:45:25.381Z,146.16
2023-06-23T00:46:25.395Z,147.60
2023-06-23T00:47:25.493Z,145.89
2023-06-23T00:48:25.476Z,146.48
2023-06-23T00:49:25.516Z,145.43
2023-06-23T00:50:25.553Z,145.80
2023-06-23T00:51:25.579Z,145.87
2023-06-23T00:52:25.656Z,147.06
2023-06-23T00:53:25.671Z,146.87
2023-06-23T00:54:25.700Z,147.61
2023-06-23T00:55:25.749Z,146.61
2023-06-23T00:56:25.796Z,146.99
2023-06-23T00:57:25.830Z,147.17
2023-06-23T00:58:25.890Z,147.59
2023-06-23T00:59:25.927Z,147.09
2023-06-23T01:00:25.988Z,145.69
2023-06-23T01:01:26.019Z,145.87
2023-06-23T01:02:26.100Z,146.75
2023-06-23T01:03:26.220Z,146.02
2023-06-23T01:04:26.204Z,146.07
2023-06-23T01:05:26.215Z,147.83
2023-06-23T01:06:33.775Z,145.88
2023-06-23T01:07:26.258Z,146.20
2023-06-23T01:08:26.238Z,146.83
2023-06-23T01:09:26.443Z,147.58
2023-06-23T01:10:26.209Z,147.90
2023-06-23T01:11:26.213Z,149.03
2023-06-23T01:12:26.209Z,149.67
2023-06-23T01:13:26.444Z,148.81
2023-06-23T01:14:26.181Z,148.45
2023-06-23T01:15:26.186Z,148.21
2023-06-23T01:16:26.173Z,149.65
2023-06-23T01:17:26.231Z,150.25
2023-06-23T01:18:26.154Z,148.30
2023-06-23T01:19:26.150Z,147.90
2023-06-23T01:20:26.174Z,147.95
2023-06-23T01:21:26.126Z,147.68
2023-06-23T01:22:26.140Z,148.78
2023-06-23T01:23:26.141Z,147.16
2023-06-23T01:24:26.180Z,146.25
2023-06-23T01:25:26.229Z,146.03
2023-06-23T01:26:26.270Z,146.44
2023-06-23T01:27:26.304Z,146.00
2023-06-23T01:28:26.354Z,145.97
2023-06-23T01:29:26.398Z,149.38
2023-06-23T01:30:26.442Z,147.45
2023-06-23T01:31:26.511Z,147.35
2023-06-23T01:32:26.557Z,147.19
2023-06-23T01:33:26.593Z,148.15
2023-06-23T01:34:26.639Z,147.80
2023-06-23T01:35:26.641Z,148.37
2023-06-23T01:36:26.723Z,149.57
2023-06-23T01:37:26.729Z,148.53
2023-06-23T01:38:26.749Z,147.84
2023-06-23T01:39:26.808Z,148.17
2023-06-23T01:40:26.843Z,148.49
2023-06-23T01:41:26.863Z,149.97
2023-06-23T01:42:26.920Z,149.19
2023-06-23T01:43:26.977Z,149.22
2023-06-23T01:44:26.970Z,149.64
2023-06-23T01:45:27.057Z,148.70
2023-06-23T01:46:27.628Z,149.16
2023-06-23T01:47:27.078Z,149.49
2023-06-23T01:48:27.108Z,150.50
2023-06-23T01:49:27.143Z,149.08
2023-06-23T01:50:27.160Z,148.32
2023-06-23T01:51:27.204Z,150.07
2023-06-23T01:52:27.243Z,148.96
2023-06-23T01:53:27.285Z,149.81
2023-06-23T01:54:27.302Z,150.32
2023-06-23T01:55:27.338Z,149.77
2023-06-23T01:56:27.375Z,150.12
2023-06-23T01:57:27.420Z,150.88
2023-06-23T01:58:27.498Z,150.95
2023-06-23T01:59:27.491Z,150.69
2023-06-23T02:00:27.515Z,150.11
2023-06-23T02:01:27.564Z,149.64
2023-06-23T02:02:27.629Z,149.91
2023-06-23T02:03:27.834Z,150.65
2023-06-23T02:04:27.894Z,149.44
2023-06-23T02:05:27.711Z,150.20
2023-06-23T02:06:27.739Z,149.93
2023-06-23T02:07:27.788Z,150.33
2023-06-23T02:08:27.817Z,149.94
2023-06-23T02:09:27.902Z,149.43
2023-06-23T02:10:27.896Z,149.12
2023-06-23T02:11:27.920Z,149.24
2023-06-23T02:12:27.951Z,149.47
2023-06-23T02:13:28.002Z,148.86
2023-06-23T02:14:28.033Z,149.77
2023-06-23T02:15:28.059Z,149.12
2023-06-23T02:16:28.086Z,149.39
2023-06-23T02:17:28.139Z,147.65
2023-06-23T02:18:28.159Z,148.29
2023-06-23T02:19:28.183Z,146.41
2023-06-23T02:20:28.247Z,148.25
2023-06-23T02:21:28.261Z,147.81
2023-06-23T02:22:28.300Z,148.01
2023-06-23T02:23:28.352Z,146.79
2023-06-23T02:24:28.398Z,148.15
2023-06-23T02:25:28.424Z,149.74
2023-06-23T02:26:28.444Z,147.91
2023-06-23T02:27:28.491Z,148.04
2023-06-23T02:28:28.547Z,148.16
2023-06-23T02:29:28.549Z,147.11
2023-06-23T02:30:28.602Z,146.56
2023-06-23T02:31:28.657Z,146.86
2023-06-23T02:32:28.687Z,147.30
2023-06-23T02:33:28.708Z,146.57
2023-06-23T02:34:28.726Z,146.36
2023-06-23T02:35:28.771Z,148.18
2023-06-23T02:36:28.855Z,147.15
2023-06-23T02:37:28.856Z,147.39
2023-06-23T02:38:28.897Z,147.55
2023-06-23T02:39:28.923Z,148.44
2023-06-23T02:40:28.980Z,147.01
2023-06-23T02:41:28.989Z,147.76
2023-06-23T02:42:29.023Z,147.56
2023-06-23T02:43:29.068Z,146.88
2023-06-23T02:44:29.097Z,148.12
2023-06-23T02:45:29.233Z,148.37
2023-06-23T02:46:29.201Z,147.75
2023-06-23T02:47:29.233Z,149.10
2023-06-23T02:48:29.216Z,148.16
2023-06-23T02:49:29.258Z,148.07
2023-06-23T02:50:29.289Z,146.99
2023-06-23T02:51:29.322Z,146.96
2023-06-23T02:52:29.365Z,144.77
2023-06-23T02:53:29.439Z,145.51
2023-06-23T02:54:29.440Z,144.95
2023-06-23T02:55:29.650Z,145.11
2023-06-23T02:56:29.531Z,142.96
2023-06-23T02:57:29.567Z,139.83
2023-06-23T02:58:29.615Z,137.16
2023-06-23T02:59:29.651Z,134.59
2023-06-23T03:00:29.679Z,133.98
2023-06-23T03:01:29.798Z,132.72
2023-06-23T03:02:29.862Z,133.82
2023-06-23T03:03:29.899Z,136.41
2023-06-23T03:04:29.847Z,136.64
2023-06-23T03:05:30.232Z,137.16
2023-06-23T03:06:29.920Z,138.94
2023-06-23T03:07:29.964Z,140.02
2023-06-23T03:08:30.006Z,138.44
2023-06-23T03:09:30.037Z,139.88
2023-06-23T03:10:30.077Z,137.63
2023-06-23T03:11:30.128Z,135.15
2023-06-23T03:12:30.156Z,134.12
2023-06-23T03:13:30.208Z,132.23
2023-06-23T03:14:30.250Z,133.46
2023-06-23T03:15:30.544Z,135.36
2023-06-23T03:16:30.324Z,135.97
2023-06-23T03:17:30.417Z,137.35
2023-06-23T03:18:30.421Z,134.53
2023-06-23T03:19:30.475Z,131.06
2023-06-23T03:20:30.484Z,121.12
2023-06-23T03:21:30.536Z,116.60
2023-06-23T03:22:30.565Z,114.62
2023-06-23T03:23:30.642Z,109.04
2023-06-23T03:24:30.653Z,108.77
2023-06-23T03:25:30.918Z,104.59
2023-06-23T03:26:30.723Z,104.22
2023-06-23T03:27:30.776Z,103.49
2023-06-23T03:28:30.820Z,103.60
2023-06-23T03:29:30.870Z,101.81
2023-06-23T03:30:30.893Z,97.52
2023-06-23T03:31:30.976Z,96.12
2023-06-23T03:32:30.992Z,91.53
2023-06-23T03:33:31.029Z,89.28
2023-06-23T03:34:31.062Z,85.95
2023-06-23T03:35:31.309Z,84.58
2023-06-23T03:36:31.140Z,83.68
2023-06-23T03:37:31.213Z,86.44
2023-06-23T03:38:31.267Z,85.31
2023-06-23T03:39:31.280Z,81.39
2023-06-23T03:40:31.335Z,76.25
2023-06-23T03:41:31.378Z,76.93
2023-06-23T03:42:31.421Z,75.14
2023-06-23T03:43:31.541Z,70.41
2023-06-23T03:44:31.537Z,73.15
2023-06-23T03:45:31.743Z,72.62
2023-06-23T03:46:31.645Z,72.80
2023-06-23T03:47:31.689Z,69.43
2023-06-23T03:48:31.735Z,73.50
2023-06-23T03:49:31.779Z,78.92
2023-06-23T03:50:31.829Z,85.22
2023-06-23T03:51:31.867Z,88.33
2023-06-23T03:52:31.916Z,83.96
2023-06-23T03:53:31.978Z,85.73
2023-06-23T03:54:32.013Z,81.48
2023-06-23T03:55:32.212Z,83.14
2023-06-23T03:56:32.112Z,83.95
2023-06-23T03:57:32.187Z,86.40
2023-06-23T03:58:32.207Z,84.10
2023-06-23T03:59:32.255Z,86.55
2023-06-23T04:00:32.315Z,83.83
2023-06-23T04:01:32.376Z,86.29
2023-06-23T04:02:32.430Z,85.60
2023-06-23T04:03:32.500Z,82.99
2023-06-23T04:04:32.504Z,84.55
2023-06-23T04:05:32.797Z,84.44
2023-06-23T04:06:32.604Z,82.36
2023-06-23T04:07:32.647Z,85.90
2023-06-23T04:08:32.711Z,88.86
2023-06-23T04:09:32.746Z,87.52
2023-06-23T04:10:32.803Z,86.63
2023-06-23T04:11:32.849Z,82.97
2023-06-23T04:12:32.896Z,85.53
2023-06-23T04:13:32.949Z,88.20
2023-06-23T04:14:33.036Z,91.16
2023-06-23T04:15:33.292Z,87.44
2023-06-23T04:16:33.102Z,84.12
2023-06-23T04:17:33.255Z,86.37
2023-06-23T04:18:33.212Z,83.08
2023-06-23T04:19:33.268Z,85.14
2023-06-23T04:20:33.320Z,82.86
2023-06-23T04:21:33.363Z,86.54
2023-06-23T04:22:33.412Z,87.22
2023-06-23T04:23:33.462Z,83.52
2023-06-23T04:24:33.503Z,82.31
2023-06-23T04:25:33.737Z,82.88
2023-06-23T04:26:33.616Z,85.03
2023-06-23T04:27:33.662Z,83.96
2023-06-23T04:28:34.014Z,84.30
2023-06-23T04:29:33.758Z,87.50
2023-06-23T04:30:33.813Z,88.37
2023-06-23T04:31:33.890Z,84.83
2023-06-23T04:32:33.939Z,83.51
2023-06-23T04:33:34.003Z,86.55
2023-06-23T04:34:34.025Z,86.46
2023-06-23T04:35:34.564Z,86.69
2023-06-23T04:36:34.106Z,84.94
2023-06-23T04:37:34.176Z,84.67
2023-06-23T04:38:34.235Z,88.75
2023-06-23T04:39:34.264Z,91.37
2023-06-23T04:40:34.319Z,92.78
2023-06-23T04:41:34.392Z,94.11
2023-06-23T04:42:34.443Z,94.41
2023-06-23T04:43:34.502Z,92.52
2023-06-23T04:44:34.563Z,93.42
2023-06-23T04:45:34.866Z,92.92
2023-06-23T04:46:34.679Z,91.57
2023-06-23T04:47:34.752Z,94.07
2023-06-23T04:48:34.750Z,93.68
2023-06-23T04:49:34.820Z,93.55
2023-06-23T04:50:34.877Z,93.12
2023-06-23T04:51:34.920Z,91.64
2023-06-23T04:52:34.968Z,92.70
2023-06-23T04:53:35.021Z,95.80
2023-06-23T04:54:35.538Z,96.75
2023-06-23T04:55:35.346Z,97.05
2023-06-23T04:56:35.202Z,99.98
2023-06-23T04:57:35.241Z,98.52
2023-06-23T04:58:35.300Z,97.73
2023-06-23T04:59:35.372Z,95.72
2023-06-23T05:00:35.509Z,98.79
2023-06-23T05:01:35.499Z,98.27
2023-06-23T05:02:35.629Z,98.12
2023-06-23T05:03:35.770Z,95.50
2023-06-23T05:04:35.648Z,97.32
2023-06-23T05:05:35.692Z,93.80
2023-06-23T05:06:35.739Z,95.73
2023-06-23T05:07:35.806Z,95.52
2023-06-23T05:08:35.864Z,97.10
2023-06-23T05:09:35.921Z,94.34
2023-06-23T05:10:35.974Z,93.65
2023-06-23T05:11:36.033Z,94.99
2023-06-23T05:12:36.114Z,92.33
2023-06-23T05:13:36.258Z,94.60
2023-06-23T05:14:36.213Z,92.65
2023-06-23T05:15:36.356Z,88.02
2023-06-23T05:16:36.328Z,91.94
2023-06-23T05:17:36.456Z,92.78
2023-06-23T05:18:36.456Z,93.54
2023-06-23T05:19:36.482Z,91.96
2023-06-23T05:20:36.506Z,94.46
2023-06-23T05:21:36.563Z,96.22
2023-06-23T05:22:36.641Z,97.90
2023-06-23T05:23:52.132Z,95.67
2023-06-23T05:24:38.780Z,95.80
2023-06-23T05:25:36.665Z,96.04
2023-06-23T05:26:36.667Z,96.21
2023-06-23T05:27:36.716Z,93.42
2023-06-23T05:28:36.650Z,92.48
2023-06-23T05:29:36.743Z,93.21
2023-06-23T05:30:36.692Z,92.93
2023-06-23T05:31:37.471Z,96.75
2023-06-23T05:32:36.876Z,94.98
2023-06-23T05:33:36.900Z,93.79
2023-06-23T05:34:36.896Z,84.41
2023-06-23T05:35:36.953Z,76.45
2023-06-23T05:36:36.980Z,71.67
2023-06-23T05:37:37.037Z,48.15
2023-06-23T05:38:37.102Z,50.51
2023-06-23T05:39:37.162Z,47.66
2023-06-23T05:40:37.232Z,26.07
2023-06-23T05:41:37.266Z,25.00
2023-06-23T05:42:37.363Z,25.11
2023-06-23T05:43:37.379Z,25.00
2023-06-23T05:44:37.439Z,26.26
2023-06-23T05:45:37.421Z,25.36
2023-06-23T05:46:37.505Z,26.86
2023-06-23T05:47:37.501Z,25.86
2023-06-23T05:48:37.535Z,33.07
2023-06-23T05:49:37.475Z,37.13
2023-06-23T05:50:37.503Z,38.84
2023-06-23T05:51:37.509Z,32.30
2023-06-23T05:52:37.577Z,29.00
2023-06-23T05:53:38.520Z,29.05
2023-06-23T05:54:37.540Z,26.97
2023-06-23T05:55:37.498Z,26.57
2023-06-23T05:56:37.539Z,27.13
2023-06-23T05:57:37.488Z,23.90
2023-06-23T05:58:37.583Z,25.79
2023-06-23T05:59:37.469Z,31.04
2023-06-23T06:00:38.256Z,31.65
2023-06-23T06:01:37.631Z,31.63
2023-06-23T06:02:37.539Z,37.67
2023-06-23T06:03:37.498Z,33.81
2023-06-23T06:04:37.544Z,34.99
2023-06-23T06:05:37.499Z,38.13
2023-06-23T06:06:37.557Z,41.69
2023-06-23T06:07:37.495Z,40.68
2023-06-23T06:08:38.086Z,40.71
2023-06-23T06:09:37.453Z,41.78
2023-06-23T06:10:37.518Z,38.10
2023-06-23T06:11:37.532Z,40.73
2023-06-23T06:12:37.516Z,42.64
2023-06-23T06:13:37.620Z,38.75
2023-06-23T06:14:37.574Z,42.02
2023-06-23T06:15:37.628Z,44.35
2023-06-23T06:16:37.628Z,46.68
2023-06-23T06:17:37.698Z,52.22
2023-06-23T06:18:37.686Z,49.66
2023-06-23T06:19:38.148Z,60.60
2023-06-23T06:20:37.720Z,60.73
2023-06-23T06:21:37.705Z,62.12
2023-06-23T06:22:37.801Z,63.55
2023-06-23T06:23:37.785Z,65.34
2023-06-23T06:24:37.766Z,67.49
2023-06-23T06:25:37.835Z,69.00
2023-06-23T06:26:37.819Z,66.30
2023-06-23T06:27:37.814Z,47.54
2023-06-23T06:28:37.915Z,43.24
2023-06-23T06:29:37.971Z,37.33
2023-06-23T06:30:38.003Z,32.29
2023-06-23T06:31:37.985Z,33.07
2023-06-23T06:32:38.065Z,27.14
2023-06-23T06:33:38.071Z,26.10
2023-06-23T06:34:38.100Z,25.88
2023-06-23T06:35:38.120Z,28.24
2023-06-23T06:36:38.173Z,28.17
2023-06-23T06:37:38.225Z,41.66
2023-06-23T06:38:38.320Z,51.89
2023-06-23T06:39:38.602Z,47.75
2023-06-23T06:40:40.116Z,45.47
2023-06-23T06:41:38.433Z,41.74
2023-06-23T06:42:38.466Z,44.76
2023-06-23T06:43:38.484Z,34.47
2023-06-23T06:44:38.546Z,33.77
2023-06-23T06:45:38.721Z,34.65
2023-06-23T06:46:38.619Z,45.24
2023-06-23T06:47:38.657Z,52.33
2023-06-23T06:48:38.715Z,51.94
2023-06-23T06:49:38.733Z,46.76
2023-06-23T06:50:38.798Z,42.75
2023-06-23T06:51:38.769Z,31.78
2023-06-23T06:52:45.588Z,25.69
2023-06-23T06:53:39.795Z,15.42
2023-06-23T06:54:38.831Z,7.05
2023-06-23T06:55:38.805Z,0.00
2023-06-23T06:56:38.848Z,0.00
2023-06-23T06:57:38.836Z,0.00
2023-06-23T06:58:38.803Z,3.91
2023-06-23T06:59:38.786Z,28.36
2023-06-23T07:00:38.820Z,30.12
2023-06-23T07:01:38.837Z,38.07
2023-06-23T07:02:38.801Z,43.87
2023-06-23T07:03:38.874Z,45.40
2023-06-23T07:04:38.757Z,45.01
2023-06-23T07:05:38.728Z,46.08
2023-06-23T07:06:38.705Z,47.60
2023-06-23T07:07:38.689Z,46.70
2023-06-23T07:08:38.702Z,43.35
2023-06-23T07:09:38.700Z,42.35
2023-06-23T07:10:38.691Z,44.61
2023-06-23T07:11:38.663Z,47.53
2023-06-23T07:12:38.756Z,46.63
2023-06-23T07:13:38.701Z,42.23
2023-06-23T07:14:38.862Z,50.00
2023-06-23T07:15:38.813Z,49.06
2023-06-23T07:16:38.747Z,48.93
2023-06-23T07:17:40.579Z,52.36
2023-06-23T07:18:38.778Z,50.70
2023-06-23T07:19:38.798Z,52.74
2023-06-23T07:20:38.815Z,50.67
2023-06-23T07:21:38.828Z,53.55
2023-06-23T07:22:38.842Z,54.06
2023-06-23T07:23:39.472Z,56.38
2023-06-23T07:24:38.933Z,60.61
2023-06-23T07:25:38.879Z,63.01
2023-06-23T07:26:38.891Z,68.05
2023-06-23T07:27:38.925Z,69.04
2023-06-23T07:28:38.961Z,75.95
2023-06-23T07:29:39.005Z,73.77
2023-06-23T07:30:39.062Z,72.29
2023-06-23T07:31:39.165Z,75.07
2023-06-23T07:32:39.021Z,74.63
2023-06-23T07:33:38.971Z,63.05
2023-06-23T07:34:39.120Z,64.91
2023-06-23T07:35:39.019Z,65.64
2023-06-23T07:36:39.042Z,63.93
2023-06-23T07:37:39.042Z,58.47
2023-06-23T07:38:39.052Z,57.48
2023-06-23T07:39:39.110Z,61.43
2023-06-23T07:40:39.077Z,57.74
2023-06-23T07:41:39.128Z,54.15
2023-06-23T07:42:39.144Z,55.23
2023-06-23T07:43:39.157Z,48.90
2023-06-23T07:44:39.654Z,46.81
2023-06-23T07:45:39.212Z,44.17
2023-06-23T07:46:39.289Z,45.57
2023-06-23T07:47:39.317Z,52.18
2023-06-23T07:48:39.241Z,55.51
2023-06-23T07:49:39.613Z,58.53
2023-06-23T07:50:39.367Z,52.90
2023-06-23T07:51:39.320Z,54.02
2023-06-23T07:52:39.412Z,65.17
2023-06-23T07:53:39.403Z,59.64
2023-06-23T07:54:39.631Z,55.49
2023-06-23T07:55:39.385Z,51.76
2023-06-23T07:56:39.389Z,60.58
2023-06-23T07:57:39.422Z,54.42
2023-06-23T07:58:40.931Z,56.40
2023-06-23T07:59:39.435Z,70.42
2023-06-23T08:00:39.419Z,77.66
2023-06-23T08:01:39.467Z,82.33
2023-06-23T08:02:39.481Z,80.95
2023-06-23T08:03:39.540Z,82.01
2023-06-23T08:04:39.893Z,82.57
2023-06-23T08:05:39.398Z,78.16
2023-06-23T08:06:39.377Z,80.65
2023-06-23T08:07:39.397Z,79.87
2023-06-23T08:08:39.405Z,75.75
2023-06-23T08:09:39.626Z,71.07
2023-06-23T08:10:39.708Z,66.09
2023-06-23T08:11:39.379Z,66.98
2023-06-23T08:12:39.359Z,68.07
2023-06-23T08:13:39.331Z,63.08
2023-06-23T08:14:39.353Z,70.94
2023-06-23T08:15:39.305Z,73.16
2023-06-23T08:16:39.338Z,72.09
2023-06-23T08:17:39.377Z,80.89
2023-06-23T08:18:39.285Z,84.06
2023-06-23T08:19:39.298Z,83.97
2023-06-23T08:20:39.306Z,85.81
2023-06-23T08:21:39.287Z,90.08
2023-06-23T08:22:39.276Z,77.52
2023-06-23T08:23:39.263Z,76.45
2023-06-23T08:24:39.306Z,75.94
2023-06-23T08:25:39.249Z,71.59
2023-06-23T08:26:39.245Z,79.57
2023-06-23T08:27:39.248Z,81.22
2023-06-23T08:28:39.217Z,81.28
2023-06-23T08:29:39.238Z,59.87
2023-06-23T08:30:39.238Z,52.71
2023-06-23T08:31:39.269Z,46.35
2023-06-23T08:32:39.215Z,45.40
2023-06-23T08:33:39.635Z,40.43
2023-06-23T08:34:39.643Z,30.53
2023-06-23T08:35:39.245Z,25.89
2023-06-23T08:36:39.196Z,25.00
2023-06-23T08:37:39.235Z,25.00
2023-06-23T08:38:39.150Z,28.63
2023-06-23T08:39:39.175Z,24.32
2023-06-23T08:40:39.163Z,24.39
2023-06-23T08:41:39.150Z,30.68
2023-06-23T08:42:39.121Z,40.69
2023-06-23T08:43:39.158Z,46.44
2023-06-23T08:44:39.133Z,73.58
2023-06-23T08:45:39.126Z,81.10
2023-06-23T08:46:51.625Z,74.23
2023-06-23T08:47:40.217Z,74.59
2023-06-23T08:48:39.228Z,75.84
2023-06-23T08:49:39.133Z,79.10
2023-06-23T08:50:39.123Z,85.42
2023-06-23T08:51:39.068Z,91.55
2023-06-23T08:52:39.504Z,91.25
2023-06-23T08:53:39.046Z,92.67
2023-06-23T08:54:39.023Z,90.15
2023-06-23T08:55:39.034Z,91.41
2023-06-23T08:56:39.053Z,94.12
2023-06-23T08:57:39.069Z,88.58
2023-06-23T08:58:39.018Z,91.68
2023-06-23T08:59:38.993Z,95.83
2023-06-23T09:00:39.012Z,103.24
2023-06-23T09:01:39.083Z,94.67
2023-06-23T09:02:39.213Z,85.06
2023-06-23T09:03:39.183Z,72.19
2023-06-23T09:04:39.161Z,83.23
2023-06-23T09:05:39.166Z,84.30
2023-06-23T09:06:39.264Z,95.58
2023-06-23T09:07:39.259Z,91.77
2023-06-23T09:08:39.357Z,94.91
2023-06-23T09:09:39.372Z,88.15
2023-06-23T09:10:39.387Z,82.53
2023-06-23T09:11:39.511Z,85.17
2023-06-23T09:12:39.542Z,85.15
2023-06-23T09:13:39.493Z,78.62
2023-06-23T09:14:39.559Z,67.93
2023-06-23T09:15:55.377Z,72.67
2023-06-23T09:16:40.556Z,72.76
2023-06-23T09:17:39.600Z,73.17
2023-06-23T09:18:39.581Z,65.93
2023-06-23T09:19:39.539Z,68.21
2023-06-23T09:20:39.589Z,76.02
2023-06-23T09:21:39.642Z,67.24
2023-06-23T09:22:39.550Z,67.02
2023-06-23T09:23:39.528Z,68.59
2023-06-23T09:24:39.638Z,73.92
2023-06-23T09:25:39.488Z,66.34
2023-06-23T09:26:39.609Z,66.33
2023-06-23T09:27:39.615Z,74.74
2023-06-23T09:28:39.650Z,70.71
2023-06-23T09:29:39.663Z,71.15
2023-06-23T09:30:39.763Z,75.64
2023-06-23T09:31:39.935Z,75.57
2023-06-23T09:32:39.869Z,74.04
2023-06-23T09:33:39.885Z,82.25
2023-06-23T09:34:40.066Z,75.68
2023-06-23T09:35:40.079Z,72.59
2023-06-23T09:36:40.073Z,66.62
2023-06-23T09:37:40.101Z,71.99
2023-06-23T09:38:40.155Z,80.94
2023-06-23T09:39:40.173Z,99.75
2023-06-23T09:40:40.168Z,99.63
2023-06-23T09:41:51.738Z,103.32
2023-06-23T09:42:41.192Z,100.29
2023-06-23T09:43:40.146Z,95.80
2023-06-23T09:44:40.173Z,94.16
2023-06-23T09:45:40.206Z,78.27
2023-06-23T09:46:40.139Z,71.68
2023-06-23T09:47:40.144Z,52.11
2023-06-23T09:48:40.139Z,62.48
2023-06-23T09:49:40.127Z,65.04
2023-06-23T09:50:40.092Z,55.25
2023-06-23T09:51:40.071Z,36.65
2023-06-23T09:52:40.072Z,33.51
2023-06-23T09:53:40.669Z,25.44
2023-06-23T09:54:40.165Z,32.15
2023-06-23T09:55:40.223Z,25.16
2023-06-23T09:56:40.295Z,25.87
2023-06-23T09:57:40.267Z,28.25
2023-06-23T09:58:40.353Z,23.36
2023-06-23T09:59:40.401Z,24.76
2023-06-23T10:00:40.377Z,22.23
2023-06-23T10:01:40.441Z,17.97
2023-06-23T10:02:40.575Z,19.47
2023-06-23T10:03:40.568Z,25.65
2023-06-23T10:04:40.472Z,25.31
2023-06-23T10:05:40.493Z,25.80
2023-06-23T10:06:40.530Z,25.35
2023-06-23T10:07:40.528Z,24.43
2023-06-23T10:08:40.549Z,24.51
2023-06-23T10:09:40.592Z,26.06
2023-06-23T10:10:40.710Z,26.44
2023-06-23T10:11:40.620Z,25.81
2023-06-23T10:12:40.700Z,33.20
2023-06-23T10:13:40.646Z,26.40
2023-06-23T10:14:42.381Z,25.08
2023-06-23T10:15:40.701Z,16.22
2023-06-23T10:16:40.737Z,26.80
2023-06-23T10:17:40.768Z,26.22
2023-06-23T10:18:40.758Z,27.05
2023-06-23T10:19:40.788Z,25.00
2023-06-23T10:20:42.292Z,25.25
2023-06-23T10:21:40.920Z,32.70
2023-06-23T10:22:40.936Z,31.22
2023-06-23T10:23:40.883Z,24.73
2023-06-23T10:24:40.936Z,20.98
2023-06-23T10:25:40.985Z,20.55
2023-06-23T10:26:40.904Z,17.33
2023-06-23T10:27:40.962Z,20.57
2023-06-23T10:28:41.080Z,25.00
2023-06-23T10:29:41.103Z,28.67
2023-06-23T10:30:41.151Z,27.41
2023-06-23T10:31:41.241Z,22.76
2023-06-23T10:32:41.279Z,18.07
2023-06-23T10:33:41.213Z,21.19
2023-06-23T10:34:41.246Z,25.00
2023-06-23T10:35:41.376Z,24.80
2023-06-23T10:36:41.316Z,25.00
2023-06-23T10:37:45.815Z,27.48
2023-06-23T10:38:42.316Z,25.22
2023-06-23T10:39:41.303Z,29.64
2023-06-23T10:40:41.293Z,34.72
2023-06-23T10:41:41.345Z,44.91
2023-06-23T10:42:41.345Z,64.88
2023-06-23T10:43:42.095Z,65.53
2023-06-23T10:44:41.305Z,61.45
2023-06-23T10:45:41.294Z,66.83
2023-06-23T10:46:41.260Z,69.34
2023-06-23T10:47:41.304Z,76.14
2023-06-23T10:48:41.293Z,82.49
2023-06-23T10:49:41.233Z,85.76
2023-06-23T10:50:41.395Z,86.01
2023-06-23T10:51:42.351Z,84.08
2023-06-23T10:52:41.400Z,86.01
2023-06-23T10:53:41.384Z,77.63
2023-06-23T10:54:41.410Z,77.47
2023-06-23T10:55:51.331Z,75.53
2023-06-23T10:56:42.484Z,75.69
2023-06-23T10:57:41.445Z,76.26
2023-06-23T10:58:41.435Z,78.31
2023-06-23T10:59:41.437Z,80.14
2023-06-23T11:00:41.418Z,84.86
2023-06-23T11:01:41.529Z,85.85
2023-06-23T11:02:41.490Z,89.21
2023-06-23T11:03:41.403Z,89.93
2023-06-23T11:04:41.408Z,90.00
2023-06-23T11:05:41.379Z,94.65
2023-06-23T11:06:41.388Z,91.25
2023-06-23T11:07:41.369Z,94.33
2023-06-23T11:08:41.402Z,94.23
2023-06-23T11:09:41.698Z,96.25
2023-06-23T11:10:41.362Z,97.27
2023-06-23T11:11:41.356Z,102.65
2023-06-23T11:12:41.343Z,102.66
2023-06-23T11:13:41.314Z,103.88
2023-06-23T11:14:41.323Z,110.42
2023-06-23T11:15:41.297Z,116.78
2023-06-23T11:16:41.350Z,115.10
2023-06-23T11:17:41.376Z,123.78
2023-06-23T11:18:41.275Z,130.59
2023-06-23T11:19:41.290Z,134.52
2023-06-23T11:20:41.282Z,138.84
2023-06-23T11:21:41.288Z,138.02
2023-06-23T11:22:41.410Z,141.41
2023-06-23T11:23:41.266Z,146.28
2023-06-23T11:24:41.704Z,149.10
2023-06-23T11:25:41.254Z,152.49
2023-06-23T11:26:41.322Z,152.36
2023-06-23T11:27:41.328Z,155.14
2023-06-23T11:28:42.209Z,158.77
2023-06-23T11:29:41.723Z,162.32
2023-06-23T11:30:41.535Z,166.18
2023-06-23T11:31:41.566Z,166.79
2023-06-23T11:32:41.665Z,169.91
2023-06-23T11:33:41.678Z,171.59
2023-06-23T11:34:41.768Z,172.60
2023-06-23T11:35:41.828Z,175.68
2023-06-23T11:36:41.890Z,176.86
2023-06-23T11:37:41.926Z,177.59
2023-06-23T11:38:42.003Z,177.25
2023-06-23T11:39:42.073Z,178.17
2023-06-23T11:40:42.089Z,180.06
2023-06-23T11:41:42.173Z,180.79
2023-06-23T11:42:42.198Z,180.94
2023-06-23T11:43:42.265Z,183.88
2023-06-23T11:44:42.306Z,183.21
2023-06-23T11:45:42.362Z,181.85
2023-06-23T11:46:42.407Z,182.24
2023-06-23T11:47:42.506Z,185.01
2023-06-23T11:48:42.539Z,183.52
2023-06-23T11:49:42.592Z,183.34
2023-06-23T11:50:42.630Z,184.19
2023-06-23T11:51:42.676Z,183.61
2023-06-23T11:52:43.010Z,184.89
2023-06-23T11:53:42.796Z,185.14
2023-06-23T11:54:42.844Z,185.45
2023-06-23T11:55:42.913Z,186.18
2023-06-23T11:56:42.988Z,188.19
2023-06-23T11:57:42.989Z,187.32
2023-06-23T11:58:43.048Z,187.68
2023-06-23T11:59:43.095Z,188.59
2023-06-23T12:00:43.158Z,187.67
2023-06-23T12:01:43.196Z,187.91
2023-06-23T12:02:43.256Z,187.56
2023-06-23T12:03:43.329Z,187.72
2023-06-23T12:04:43.466Z,188.31
2023-06-23T12:05:43.382Z,189.99
2023-06-23T12:06:43.418Z,190.78
2023-06-23T12:07:43.456Z,190.83
2023-06-23T12:08:43.511Z,188.70
2023-06-23T12:09:43.657Z,188.63
2023-06-23T12:10:43.596Z,192.43
2023-06-23T12:11:43.620Z,193.75
2023-06-23T12:12:43.646Z,192.65
2023-06-23T12:13:43.684Z,192.54
2023-06-23T12:14:43.712Z,190.23
2023-06-23T12:15:43.734Z,189.86
2023-06-23T12:16:43.768Z,188.77
2023-06-23T12:17:43.809Z,190.31
2023-06-23T12:18:43.832Z,192.15
2023-06-23T12:19:44.244Z,190.75
2023-06-23T12:20:43.895Z,189.18
2023-06-23T12:21:43.911Z,190.83
2023-06-23T12:22:43.937Z,190.22
2023-06-23T12:23:43.977Z,189.50
2023-06-23T12:24:44.016Z,189.05
2023-06-23T12:25:44.031Z,189.60
2023-06-23T12:26:44.082Z,187.14
2023-06-23T12:27:44.103Z,186.01
2023-06-23T12:28:44.140Z,189.40
2023-06-23T12:29:44.180Z,189.71
2023-06-23T12:30:44.181Z,188.99
2023-06-23T12:31:44.253Z,191.64
2023-06-23T12:32:44.273Z,194.46
2023-06-23T12:33:44.264Z,194.57
2023-06-23T12:34:44.288Z,196.42
2023-06-23T12:35:44.312Z,196.70
2023-06-23T12:36:44.377Z,190.37
2023-06-23T12:37:44.372Z,189.15
2023-06-23T12:38:44.408Z,192.96
2023-06-23T12:39:44.437Z,196.72
2023-06-23T12:40:44.470Z,197.44
2023-06-23T12:41:44.483Z,193.63
2023-06-23T12:42:46.261Z,191.34